createdAt,value
2024-02-15T00:02:24.060Z,12.00
2024-02-15T00:04:50.948Z,9.90
2024-02-15T00:07:18.051Z,10.00
2024-02-15T00:09:44.741Z,12.00
2024-02-15T00:12:11.512Z,10.80
2024-02-15T00:14:38.801Z,10.90
2024-02-15T00:17:05.709Z,10.00
2024-02-15T00:19:32.518Z,10.60
2024-02-15T00:21:59.337Z,10.40
2024-02-15T00:24:25.992Z,9.70
2024-02-15T00:26:54.149Z,9.40
2024-02-15T00:29:20.863Z,11.40
2024-02-15T00:31:47.573Z,9.50
2024-02-15T00:34:14.802Z,12.00
2024-02-15T00:36:44.869Z,12.00
2024-02-15T00:39:13.337Z,11.20
2024-02-15T00:41:43.820Z,8.60
2024-02-15T00:44:13.520Z,9.20
2024-02-15T00:46:41.917Z,9.90
2024-02-15T00:49:08.834Z,9.70
2024-02-15T00:51:36.479Z,9.50
2024-02-15T00:54:03.969Z,10.40
2024-02-15T00:56:32.625Z,9.00
2024-02-15T00:59:03.908Z,9.90
2024-02-15T01:01:31.077Z,9.40
2024-02-15T01:03:57.892Z,9.10
2024-02-15T01:06:24.721Z,10.10
2024-02-15T01:08:52.139Z,8.90
2024-02-15T01:11:18.973Z,9.50
2024-02-15T01:13:46.082Z,10.00
2024-02-15T01:16:14.009Z,9.40
2024-02-15T01:18:40.837Z,9.30
2024-02-15T01:21:08.017Z,9.70
2024-02-15T01:23:37.286Z,9.80
2024-02-15T01:26:05.382Z,9.40
2024-02-15T01:28:32.593Z,9.50
2024-02-15T01:30:59.214Z,8.80
2024-02-15T01:33:26.056Z,10.40
2024-02-15T01:35:52.881Z,9.70
2024-02-15T01:38:19.647Z,8.70
2024-02-15T01:40:48.055Z,9.10
2024-02-15T01:43:15.059Z,10.80
2024-02-15T01:45:42.254Z,9.80
2024-02-15T01:48:10.714Z,9.10
2024-02-15T01:50:37.510Z,9.90
2024-02-15T01:53:08.720Z,9.70
2024-02-15T01:55:35.840Z,9.90
2024-02-15T01:58:05.347Z,8.70
2024-02-15T02:00:32.079Z,8.30
2024-02-15T02:03:03.146Z,8.80
2024-02-15T02:05:31.526Z,8.50
2024-02-15T02:08:02.055Z,9.70
2024-02-15T02:10:33.189Z,9.40
2024-02-15T02:13:03.133Z,9.80
2024-02-15T02:15:32.031Z,9.60
2024-02-15T02:17:59.730Z,11.40
2024-02-15T02:20:27.102Z,9.50
2024-02-15T02:22:55.941Z,9.70
2024-02-15T02:25:26.825Z,9.80
2024-02-15T02:27:54.070Z,9.40
2024-02-15T02:30:22.669Z,10.70
2024-02-15T02:32:49.514Z,9.30
2024-02-15T02:35:21.064Z,9.60
2024-02-15T02:37:47.754Z,10.40
2024-02-15T02:40:14.516Z,8.80
2024-02-15T02:42:51.648Z,9.40
2024-02-15T02:45:20.346Z,9.40
2024-02-15T02:47:48.593Z,10.00
2024-02-15T02:50:16.380Z,8.80
2024-02-15T02:52:43.064Z,9.30
2024-02-15T02:55:09.775Z,11.30
2024-02-15T02:57:40.229Z,9.50
2024-02-15T03:00:13.214Z,10.90
2024-02-15T03:02:40.196Z,10.90
2024-02-15T03:05:08.956Z,9.50
2024-02-15T03:07:37.049Z,8.90
2024-02-15T03:10:05.389Z,9.90
2024-02-15T03:12:32.474Z,9.80
2024-02-15T03:14:59.288Z,9.00
2024-02-15T03:17:26.508Z,9.40
2024-02-15T03:19:53.295Z,9.60
2024-02-15T03:22:20.009Z,9.20
2024-02-15T03:24:46.615Z,10.20
2024-02-15T03:27:13.345Z,9.70
2024-02-15T03:29:40.183Z,9.80
2024-02-15T03:32:07.119Z,11.30
2024-02-15T03:34:33.968Z,9.10
2024-02-15T03:37:01.200Z,8.10
2024-02-15T03:39:28.039Z,13.40
2024-02-15T03:41:56.475Z,12.30
2024-02-15T03:44:26.414Z,10.60
2024-02-15T03:47:01.136Z,10.10
2024-02-15T03:49:28.022Z,9.40
2024-02-15T03:51:55.539Z,9.10
2024-02-15T03:54:23.750Z,10.60
2024-02-15T03:56:55.182Z,15.90
2024-02-15T03:59:32.819Z,16.10
2024-02-15T04:02:03.843Z,12.20
2024-02-15T04:04:30.912Z,11.80
2024-02-15T04:06:58.780Z,11.80
2024-02-15T04:09:25.786Z,12.10
2024-02-15T04:11:53.441Z,10.70
2024-02-15T04:14:20.257Z,13.90
2024-02-15T04:16:47.027Z,11.60
2024-02-15T04:19:14.248Z,12.50
2024-02-15T04:21:41.083Z,12.90
2024-02-15T04:24:07.872Z,11.20
2024-02-15T04:26:34.856Z,21.60
2024-02-15T04:29:01.558Z,25.50
2024-02-15T04:31:28.370Z,22.40
2024-02-15T04:33:56.192Z,22.30
2024-02-15T04:36:26.695Z,19.50
2024-02-15T04:38:53.869Z,18.10
2024-02-15T04:41:23.477Z,18.60
2024-02-15T04:43:51.136Z,17.90
2024-02-15T04:46:18.071Z,17.60
2024-02-15T04:48:44.859Z,20.60
2024-02-15T04:51:11.734Z,17.80
2024-02-15T04:53:39.728Z,16.00
2024-02-15T04:56:14.350Z,14.40
2024-02-15T04:58:47.948Z,14.60
2024-02-15T05:01:15.929Z,14.80
2024-02-15T05:03:46.292Z,15.30
2024-02-15T05:06:13.219Z,17.10
2024-02-15T05:08:43.182Z,15.40
2024-02-15T05:11:18.267Z,15.90
2024-02-15T05:13:45.615Z,15.60
2024-02-15T05:16:16.578Z,14.60
2024-02-15T05:18:43.520Z,12.60
2024-02-15T05:21:10.549Z,14.30
2024-02-15T05:23:40.227Z,16.30
2024-02-15T05:26:07.210Z,15.00
2024-02-15T05:28:34.072Z,14.40
2024-02-15T05:31:11.829Z,16.70
2024-02-15T05:33:44.643Z,15.50
2024-02-15T05:36:12.326Z,17.00
2024-02-15T05:38:39.866Z,16.10
2024-02-15T05:41:08.300Z,15.50
2024-02-15T05:43:37.990Z,14.40
2024-02-15T05:46:07.066Z,15.60
2024-02-15T05:48:37.287Z,14.90
2024-02-15T05:51:05.321Z,14.20
2024-02-15T05:53:38.642Z,17.20
2024-02-15T05:56:07.780Z,17.20
2024-02-15T05:58:36.061Z,19.10
2024-02-15T06:01:07.030Z,19.50
2024-02-15T06:03:39.195Z,20.80
2024-02-15T06:06:10.031Z,18.90
2024-02-15T06:08:39.920Z,19.00
2024-02-15T06:11:07.576Z,16.20
2024-02-15T06:13:34.327Z,16.80
2024-02-15T06:16:01.642Z,14.80
2024-02-15T06:18:29.885Z,12.80
2024-02-15T06:20:58.582Z,13.40
2024-02-15T06:23:28.143Z,15.00
2024-02-15T06:25:57.156Z,13.90
2024-02-15T06:28:42.632Z,18.30
2024-02-15T06:31:29.779Z,15.40
2024-02-15T06:34:16.413Z,14.80
2024-02-15T06:37:19.014Z,19.60
2024-02-15T06:39:46.312Z,23.20
2024-02-15T06:42:21.699Z,21.70
2024-02-15T06:44:49.416Z,17.50
2024-02-15T06:47:25.626Z,17.20
2024-02-15T06:49:55.845Z,12.60
2024-02-15T06:52:23.663Z,15.70
2024-02-15T06:54:51.900Z,16.40
2024-02-15T06:57:19.032Z,15.30
2024-02-15T06:59:47.627Z,14.40
2024-02-15T07:02:14.539Z,15.40
2024-02-15T07:04:42.309Z,12.20
2024-02-15T07:07:09.104Z,13.00
2024-02-15T07:09:36.068Z,12.40
2024-02-15T07:12:03.041Z,13.60
2024-02-15T07:14:30.007Z,11.50
2024-02-15T07:17:04.735Z,12.60
2024-02-15T07:19:49.730Z,12.90
2024-02-15T07:22:17.272Z,13.50
2024-02-15T07:24:44.628Z,11.70
2024-02-15T07:27:12.195Z,12.30
2024-02-15T07:29:39.287Z,12.40
2024-02-15T07:32:06.767Z,10.80
2024-02-15T07:34:34.887Z,14.40
2024-02-15T07:37:03.073Z,15.60
2024-02-15T07:39:30.105Z,16.40
2024-02-15T07:42:05.126Z,24.90
2024-02-15T07:44:33.034Z,44.20
2024-02-15T07:47:00.978Z,47.80
2024-02-15T07:49:28.019Z,47.80
2024-02-15T07:51:55.025Z,46.80
2024-02-15T07:54:22.348Z,49.50
2024-02-15T07:56:50.801Z,56.30
2024-02-15T07:59:17.715Z,38.70
2024-02-15T08:01:46.465Z,36.90
2024-02-15T08:04:14.589Z,25.80
2024-02-15T08:06:43.057Z,12.60
2024-02-15T08:09:19.017Z,15.10
2024-02-15T08:11:46.167Z,11.10
2024-02-15T08:14:14.625Z,14.10
2024-02-15T08:16:41.933Z,15.50
2024-02-15T08:19:09.167Z,17.70
2024-02-15T08:21:38.054Z,17.30
2024-02-15T08:24:07.753Z,17.80
2024-02-15T08:26:43.279Z,14.40
2024-02-15T08:29:14.339Z,14.20
2024-02-15T08:31:42.039Z,15.10
2024-02-15T08:34:11.795Z,18.80
2024-02-15T08:36:40.343Z,20.70
2024-02-15T08:39:08.997Z,30.20
2024-02-15T08:41:36.051Z,30.20
2024-02-15T08:44:06.561Z,25.10
2024-02-15T08:46:33.412Z,19.70
2024-02-15T08:49:01.352Z,17.10
2024-02-15T08:51:30.894Z,11.60
2024-02-15T08:53:58.975Z,13.70
2024-02-15T08:56:26.438Z,14.70
2024-02-15T08:58:53.058Z,15.00
2024-02-15T09:01:20.142Z,17.30
2024-02-15T09:03:47.244Z,16.90
2024-02-15T09:06:16.392Z,14.30
2024-02-15T09:08:43.398Z,12.50
2024-02-15T09:11:12.897Z,16.00
2024-02-15T09:13:39.724Z,21.30
2024-02-15T09:16:12.390Z,22.30
2024-02-15T09:18:45.574Z,17.00
2024-02-15T09:21:20.130Z,14.90
2024-02-15T09:23:48.074Z,13.30
2024-02-15T09:26:14.914Z,13.30
2024-02-15T09:28:41.817Z,12.10
2024-02-15T09:31:08.758Z,11.50
2024-02-15T09:33:35.641Z,11.70
2024-02-15T09:36:03.123Z,10.80
2024-02-15T09:38:30.338Z,9.20
2024-02-15T09:40:57.750Z,11.80
2024-02-15T09:43:26.763Z,12.80
2024-02-15T09:45:53.788Z,11.60
2024-02-15T09:48:25.954Z,17.90
2024-02-15T09:50:56.040Z,15.70
2024-02-15T09:53:26.300Z,13.30
2024-02-15T09:56:04.737Z,12.70
2024-02-15T09:58:34.922Z,8.90
2024-02-15T10:01:06.805Z,15.10
2024-02-15T10:03:34.306Z,14.10
2024-02-15T10:06:01.450Z,12.20
2024-02-15T10:08:30.240Z,15.60
2024-02-15T10:11:10.459Z,13.30
2024-02-15T10:13:39.968Z,17.90
2024-02-15T10:16:18.821Z,17.60
2024-02-15T10:18:47.753Z,39.60
2024-02-15T10:21:35.843Z,17.10
2024-02-15T10:24:07.696Z,14.40
2024-02-15T10:26:38.415Z,13.70
2024-02-15T10:29:10.241Z,11.90
2024-02-15T10:31:52.804Z,9.50
2024-02-15T10:34:21.754Z,6.80
2024-02-15T10:36:50.503Z,7.40
2024-02-15T10:39:21.910Z,8.00
2024-02-15T10:41:53.692Z,8.50
2024-02-15T10:44:23.881Z,9.40
2024-02-15T10:46:53.820Z,14.20
2024-02-15T10:49:24.382Z,11.80
2024-02-15T10:51:56.911Z,12.80
2024-02-15T10:54:47.258Z,19.00
2024-02-15T10:57:22.943Z,13.50
2024-02-15T10:59:59.701Z,10.40
2024-02-15T11:02:32.218Z,6.40
2024-02-15T11:05:06.896Z,3.20
2024-02-15T11:07:34.406Z,3.50
2024-02-15T11:10:05.357Z,2.70
2024-02-15T11:12:32.400Z,4.00
2024-02-15T11:14:59.690Z,7.80
2024-02-15T11:17:43.253Z,7.00
2024-02-15T11:20:14.251Z,5.70
2024-02-15T11:22:43.275Z,13.20
2024-02-15T11:25:12.243Z,8.80
2024-02-15T11:27:41.043Z,8.50
2024-02-15T11:30:13.072Z,13.10
2024-02-15T11:32:52.651Z,12.30
2024-02-15T11:35:23.798Z,9.20
2024-02-15T11:37:53.503Z,21.20
2024-02-15T11:40:41.873Z,6.90
2024-02-15T11:43:11.429Z,4.60
2024-02-15T11:45:41.590Z,8.90
2024-02-15T11:48:13.391Z,11.80
2024-02-15T11:50:43.188Z,19.00
2024-02-15T11:53:11.171Z,11.80
2024-02-15T11:55:42.768Z,7.20
2024-02-15T11:58:10.924Z,6.40
2024-02-15T12:00:59.129Z,10.20
2024-02-15T12:03:52.889Z,5.10
2024-02-15T12:06:48.414Z,5.50
2024-02-15T12:09:38.014Z,12.20
2024-02-15T12:12:24.765Z,3.20
2024-02-15T12:15:20.692Z,5.30
2024-02-15T12:18:06.459Z,9.80
2024-02-15T12:20:34.830Z,5.80
2024-02-15T12:23:01.928Z,5.00
2024-02-15T12:25:29.074Z,9.20
2024-02-15T12:27:57.128Z,9.90
2024-02-15T12:30:25.982Z,13.00
2024-02-15T12:33:11.421Z,4.50
2024-02-15T12:35:38.868Z,5.80
2024-02-15T12:38:05.836Z,4.90
2024-02-15T12:40:35.253Z,3.90
2024-02-15T12:43:09.009Z,8.70
2024-02-15T12:45:38.629Z,7.40
2024-02-15T12:48:07.242Z,10.00
2024-02-15T12:50:35.137Z,4.20
2024-02-15T12:53:06.499Z,4.80
2024-02-15T12:55:35.504Z,9.00
2024-02-15T12:58:04.599Z,8.90
2024-02-15T13:00:33.934Z,9.70
2024-02-15T13:03:05.705Z,7.30
2024-02-15T13:05:33.566Z,23.40
2024-02-15T13:08:04.000Z,13.60
2024-02-15T13:10:32.159Z,4.70
2024-02-15T13:12:59.018Z,6.20
2024-02-15T13:15:33.357Z,4.50
2024-02-15T13:18:04.862Z,6.60
2024-02-15T13:20:36.175Z,6.20
2024-02-15T13:23:08.698Z,5.50
2024-02-15T13:25:40.275Z,6.00
2024-02-15T13:28:09.445Z,7.20
2024-02-15T13:30:36.711Z,3.90
2024-02-15T13:33:04.492Z,7.50
2024-02-15T13:35:32.926Z,4.10
2024-02-15T13:37:59.952Z,6.60
2024-02-15T13:40:28.704Z,8.50
2024-02-15T13:42:59.073Z,3.00
2024-02-15T13:45:37.968Z,3.70
2024-02-15T13:48:05.612Z,3.00
2024-02-15T13:50:33.240Z,3.50
2024-02-15T13:53:00.241Z,8.30
2024-02-15T13:55:27.557Z,5.50
2024-02-15T13:58:00.388Z,4.50
2024-02-15T14:00:30.798Z,5.30
2024-02-15T14:02:59.479Z,9.60
2024-02-15T14:05:30.770Z,8.10
2024-02-15T14:08:00.056Z,5.30
2024-02-15T14:10:38.121Z,9.80
2024-02-15T14:13:09.680Z,4.20
2024-02-15T14:15:38.749Z,7.10
2024-02-15T14:18:19.074Z,9.40
2024-02-15T14:20:48.148Z,11.50
2024-02-15T14:23:15.992Z,13.80
2024-02-15T14:25:49.537Z,8.90
2024-02-15T14:31:02.745Z,8.80
2024-02-15T14:33:33.942Z,10.10
2024-02-15T14:36:05.051Z,14.60
2024-02-15T14:38:34.639Z,15.20
2024-02-15T14:41:02.999Z,8.20
2024-02-15T14:43:30.349Z,9.40
2024-02-15T14:45:58.586Z,11.60
2024-02-15T14:48:26.550Z,11.70
2024-02-15T14:50:56.452Z,7.80
2024-02-15T14:53:23.469Z,10.60
2024-02-15T14:55:52.234Z,15.10
2024-02-15T14:58:20.664Z,16.60
2024-02-15T15:00:48.844Z,15.50
2024-02-15T15:03:17.377Z,21.60
2024-02-15T15:06:04.106Z,24.30
2024-02-15T15:08:50.518Z,22.30
2024-02-15T15:11:36.647Z,26.70
2024-02-15T15:14:05.072Z,35.40
2024-02-15T15:16:32.101Z,38.40
2024-02-15T15:18:59.404Z,37.20
2024-02-15T15:21:28.157Z,22.30
2024-02-15T15:23:55.263Z,26.10
2024-02-15T15:26:22.685Z,30.00
2024-02-15T15:28:50.312Z,28.00
2024-02-15T15:31:17.838Z,41.90
2024-02-15T15:33:45.162Z,36.30
2024-02-15T15:36:12.712Z,41.00
2024-02-15T15:38:40.041Z,50.90
2024-02-15T15:41:10.431Z,59.40
2024-02-15T15:43:40.889Z,49.40
2024-02-15T15:46:16.030Z,32.20
2024-02-15T15:48:46.954Z,35.40
2024-02-15T15:51:14.710Z,33.40
2024-02-15T15:53:42.880Z,45.60
2024-02-15T15:56:10.483Z,34.40
2024-02-15T15:58:37.366Z,29.70
2024-02-15T16:01:04.853Z,26.40
2024-02-15T16:03:32.013Z,23.60
2024-02-15T16:05:58.965Z,39.30
2024-02-15T16:08:27.398Z,35.70
2024-02-15T16:10:59.187Z,48.00
2024-02-15T16:13:44.943Z,40.30
2024-02-15T16:16:12.805Z,41.30
2024-02-15T16:18:39.755Z,39.40
2024-02-15T16:21:07.311Z,38.00
2024-02-15T16:23:34.359Z,42.20
2024-02-15T16:26:01.511Z,35.00
2024-02-15T16:28:29.705Z,33.20
2024-02-15T16:30:56.691Z,39.50
2024-02-15T16:33:23.584Z,41.40
2024-02-15T16:35:50.751Z,40.10
2024-02-15T16:38:17.812Z,55.00
2024-02-15T16:40:45.300Z,70.20
2024-02-15T16:43:12.743Z,69.30
2024-02-15T16:45:44.205Z,53.20
2024-02-15T16:48:12.271Z,42.70
2024-02-15T16:50:42.134Z,26.30
2024-02-15T16:53:13.131Z,23.60
2024-02-15T16:55:42.057Z,20.80
2024-02-15T16:58:11.035Z,25.90
2024-02-15T17:00:39.194Z,43.70
2024-02-15T17:03:08.983Z,38.70
2024-02-15T17:05:35.999Z,26.00
2024-02-15T17:08:06.773Z,24.30
2024-02-15T17:10:35.449Z,25.00
2024-02-15T17:13:02.751Z,30.20
2024-02-15T17:15:30.379Z,28.00
2024-02-15T17:17:58.108Z,29.30
2024-02-15T17:20:25.682Z,31.20
2024-02-15T17:22:52.428Z,47.80
2024-02-15T17:25:24.509Z,46.20
2024-02-15T17:27:59.443Z,47.20
2024-02-15T17:30:26.724Z,45.90
2024-02-15T17:32:53.917Z,38.70
2024-02-15T17:35:21.387Z,34.10
2024-02-15T17:37:48.108Z,31.80
2024-02-15T17:40:14.933Z,36.90
2024-02-15T17:42:42.995Z,35.70
2024-02-15T17:45:13.583Z,27.30
2024-02-15T17:47:42.613Z,24.70
2024-02-15T17:50:10.992Z,24.40
2024-02-15T17:52:38.558Z,32.20
2024-02-15T17:55:06.874Z,30.90
2024-02-15T17:57:33.770Z,31.90
2024-02-15T18:00:00.591Z,28.40
2024-02-15T18:02:28.866Z,36.10
2024-02-15T18:04:55.843Z,40.50
2024-02-15T18:07:22.762Z,48.80
2024-02-15T18:09:51.742Z,54.50
2024-02-15T18:12:22.894Z,51.10
2024-02-15T18:14:51.104Z,40.60
2024-02-15T18:17:17.947Z,36.70
2024-02-15T18:19:49.918Z,34.80
2024-02-15T18:22:16.882Z,34.00
2024-02-15T18:24:51.952Z,34.10
2024-02-15T18:27:23.392Z,39.10
2024-02-15T18:29:50.758Z,38.40
2024-02-15T18:32:18.561Z,31.00
2024-02-15T18:34:49.695Z,28.10
2024-02-15T18:37:25.937Z,24.20
2024-02-15T18:39:57.219Z,19.30
2024-02-15T18:42:26.195Z,17.80
2024-02-15T18:44:53.153Z,20.70
2024-02-15T18:47:22.182Z,26.00
2024-02-15T18:50:00.066Z,32.70
2024-02-15T18:52:28.665Z,43.70
2024-02-15T18:54:59.474Z,47.10
2024-02-15T18:57:27.720Z,50.10
2024-02-15T18:59:56.333Z,45.80
2024-02-15T19:02:23.313Z,50.80
2024-02-15T19:04:53.185Z,52.70
2024-02-15T19:07:20.192Z,53.00
2024-02-15T19:09:47.321Z,45.60
2024-02-15T19:12:14.440Z,42.00
2024-02-15T19:14:43.231Z,46.90
2024-02-15T19:17:10.119Z,51.50
2024-02-15T19:19:37.751Z,53.60
2024-02-15T19:22:04.572Z,56.00
2024-02-15T19:24:31.426Z,59.30
2024-02-15T19:26:58.397Z,63.00
2024-02-15T19:29:26.362Z,83.60
2024-02-15T19:31:53.068Z,73.30
2024-02-15T19:34:21.442Z,59.70
2024-02-15T19:36:53.754Z,53.70
2024-02-15T19:39:24.716Z,40.60
2024-02-15T19:41:52.560Z,31.40
2024-02-15T19:44:20.127Z,35.90
2024-02-15T19:46:47.368Z,33.70
2024-02-15T19:49:14.322Z,39.50
2024-02-15T19:51:41.158Z,42.50
2024-02-15T19:54:07.970Z,47.90
2024-02-15T19:56:34.927Z,47.90
2024-02-15T19:59:02.269Z,42.00
2024-02-15T20:01:29.409Z,37.70
2024-02-15T20:03:56.705Z,39.50
2024-02-15T20:06:25.246Z,31.90
2024-02-15T20:08:57.933Z,26.80
2024-02-15T20:11:28.458Z,23.00
2024-02-15T20:13:58.557Z,23.70
2024-02-15T20:16:25.313Z,27.60
2024-02-15T20:18:52.313Z,25.00
2024-02-15T20:21:20.845Z,23.90
2024-02-15T20:23:52.150Z,32.70
2024-02-15T20:26:20.091Z,45.70
2024-02-15T20:28:48.007Z,61.40
2024-02-15T20:31:17.765Z,63.70
2024-02-15T20:33:45.798Z,64.00
2024-02-15T20:36:12.997Z,53.60
2024-02-15T20:38:41.487Z,42.90
2024-02-15T20:41:12.259Z,41.20
2024-02-15T20:43:39.761Z,38.10
2024-02-15T20:46:10.367Z,35.50
2024-02-15T20:48:38.840Z,34.70
2024-02-15T20:51:08.588Z,34.70
2024-02-15T20:53:35.515Z,54.50
2024-02-15T20:56:02.200Z,31.90
2024-02-15T20:58:29.436Z,29.30
2024-02-15T21:00:59.165Z,27.50
2024-02-15T21:03:25.922Z,27.60
2024-02-15T21:05:54.036Z,29.40
2024-02-15T21:08:21.818Z,26.50
2024-02-15T21:10:48.906Z,24.80
2024-02-15T21:13:15.703Z,27.10
2024-02-15T21:15:43.025Z,24.40
2024-02-15T21:18:10.591Z,26.50
2024-02-15T21:20:37.513Z,22.10
2024-02-15T21:23:06.375Z,21.20
2024-02-15T21:25:33.597Z,23.30
2024-02-15T21:28:00.494Z,25.60
2024-02-15T21:30:29.316Z,22.60
2024-02-15T21:32:56.087Z,23.80
2024-02-15T21:35:24.075Z,26.00
2024-02-15T21:37:51.119Z,24.10
2024-02-15T21:40:18.060Z,24.10
2024-02-15T21:42:44.745Z,25.80
2024-02-15T21:45:12.674Z,31.90
2024-02-15T21:47:43.341Z,29.30
2024-02-15T21:50:10.753Z,29.00
2024-02-15T21:52:37.891Z,37.60
2024-02-15T21:55:05.072Z,35.70
2024-02-15T21:57:33.028Z,33.50
2024-02-15T22:00:00.083Z,32.10
2024-02-15T22:03:23.819Z,31.20
2024-02-15T22:07:23.915Z,33.40
2024-02-15T22:11:23.963Z,42.20
2024-02-15T22:14:09.372Z,38.70
2024-02-15T22:16:36.687Z,28.30
2024-02-15T22:19:07.122Z,24.40
2024-02-15T22:21:34.648Z,22.20
2024-02-15T22:24:01.867Z,26.90
2024-02-15T22:26:28.981Z,27.20
2024-02-15T22:28:56.085Z,24.40
2024-02-15T22:31:23.553Z,24.60
2024-02-15T22:33:51.314Z,18.60
2024-02-15T22:36:25.697Z,18.20
2024-02-15T22:38:53.017Z,21.20
2024-02-15T22:41:21.784Z,17.90
2024-02-15T22:43:49.352Z,16.00
2024-02-15T22:46:16.341Z,15.70
2024-02-15T22:48:43.938Z,16.50
2024-02-15T22:51:11.336Z,14.00
2024-02-15T22:53:45.628Z,15.80
2024-02-15T22:56:13.467Z,14.80
2024-02-15T22:58:40.512Z,13.50
2024-02-15T23:01:08.324Z,12.70
2024-02-15T23:03:36.005Z,12.10
2024-02-15T23:06:03.324Z,12.50
2024-02-15T23:08:30.329Z,12.50
2024-02-15T23:10:57.510Z,13.20
2024-02-15T23:13:24.561Z,11.30
2024-02-15T23:15:54.265Z,10.90
2024-02-15T23:18:21.511Z,11.70
2024-02-15T23:20:48.651Z,11.00
2024-02-15T23:23:16.697Z,11.30
2024-02-15T23:25:44.303Z,11.30
2024-02-15T23:28:11.489Z,11.00
2024-02-15T23:30:40.431Z,11.40
2024-02-15T23:33:10.718Z,12.40
2024-02-15T23:35:48.086Z,11.70
2024-02-15T23:38:33.794Z,14.30
2024-02-15T23:41:01.017Z,14.30
2024-02-15T23:43:28.630Z,12.90
2024-02-15T23:45:55.818Z,13.40
2024-02-15T23:48:22.834Z,13.30
2024-02-15T23:50:50.211Z,14.20
2024-02-15T23:53:17.333Z,17.20
2024-02-15T23:55:44.291Z,20.80
2024-02-15T23:58:11.370Z,23.20
